Buoy 43528

sailwx.info

Track history (hours):
 
Tides and Currents Weather Stations Pressure Air Temp Water Temp Dewpoint Dewpoint Depression Visibility Wind Speed Wind Dir Waves Ship Positions

Drifting buoy 43528

Last reported at 2014-Jul-31 01:00 UTC. Time now 2014-Jul-31 05:27 UTC.
Position N 14°50' W 117°18'.

Water temperature 28.8 ° C

Date/timePositionNaut miles runAvg speedWind from/ knotsBaromVisibWave heightAir tempDewpointWater temp
2014-Jul-31 01:00N 14°50' W 117°18'1 0.7 28.8
2014-Jul-30 23:00N 14°50' W 117°16'0 0.4 28.8
2014-Jul-30 22:00N 14°49' W 117°16'1 0.6 28.9
2014-Jul-30 20:00N 14°48' W 117°15'1 0.6 28.8
2014-Jul-30 18:00N 14°48' W 117°14'1 1.1 28.8
2014-Jul-30 17:00N 14°47' W 117°13'0 0.1 28.7
2014-Jul-30 16:00N 14°47' W 117°13'2 0.5 28.7
2014-Jul-30 12:00N 14°47' W 117°11'2 2.0 28.7
2014-Jul-30 11:00N 14°45' W 117°09'0 0.0 28.7
2014-Jul-30 10:00N 14°45' W 117°09'3 0.4 28.7
2014-Jul-30 04:00N 14°44' W 117°07'6 1.1 28.7
2014-Jul-29 23:00N 14°41' W 117°02'1 0.9 28.8
2014-Jul-29 22:00N 14°41' W 117°01'5 0.9 28.9
2014-Jul-29 17:00N 14°40' W 116°56'3 2.7 28.7
2014-Jul-29 16:00N 14°40' W 116°53'0 0.0 28.7
2014-Jul-29 13:00N 14°40' W 116°53'1 0.7 28.6
2014-Jul-29 11:00N 14°39' W 116°52'4 2.0 28.7
2014-Jul-29 09:00N 14°40' W 116°48'0 0.0 28.7
2014-Jul-29 06:00N 14°40' W 116°48'1 1.1 28.7
2014-Jul-29 05:00N 14°40' W 116°47'0 0.4 28.7
2014-Jul-29 04:00N 14°41' W 116°47'5 1.0 28.8
2014-Jul-28 23:00N 14°42' W 116°42'1 1.1 28.9
2014-Jul-28 22:00N 14°43' W 116°42'1 0.6 28.9
2014-Jul-28 20:00N 14°44' W 116°41'2 1.2 28.9
2014-Jul-28 18:00N 14°46' W 116°39'1 0.7 28.8
2014-Jul-28 17:00N 14°46' W 116°40'1 1.5 28.7
2014-Jul-28 16:00N 14°48' W 116°40'1 0.4 28.6
2014-Jul-28 13:00N 14°48' W 116°39'1 1.2 28.6
2014-Jul-28 12:00N 14°49' W 116°39'0 0.0 28.6
2014-Jul-28 11:00N 14°49' W 116°39'1 0.7 28.6
2014-Jul-28 09:00N 14°51' W 116°38'1 0.2 28.6
2014-Jul-28 04:00N 14°51' W 116°37'1 0.5 28.7
2014-Jul-28 01:00N 14°52' W 116°36'0 0.0 29.0
2014-Jul-28 00:00N 14°52' W 116°36'1 0.5 29.0
2014-Jul-27 23:00N 14°52' W 116°36'1 0.6 29.0
2014-Jul-27 21:00N 14°52' W 116°35'2 0.8 28.8
2014-Jul-27 18:00N 14°53' W 116°33'1 0.5 28.7
2014-Jul-27 17:00N 14°54' W 116°33'1 0.9 28.6
2014-Jul-27 16:00N 14°54' W 116°32'1 0.5 28.6
2014-Jul-27 13:00N 14°54' W 116°30'1 0.7 28.5
2014-Jul-27 12:00N 14°55' W 116°30'5 1.6 28.5
2014-Jul-27 09:00N 14°58' W 116°27'4 4.0 28.6
2014-Jul-27 08:00N 14°56' W 116°30'4 2.0 28.6
2014-Jul-27 06:00N 14°58' W 116°27'1 1.0 28.6
2014-Jul-27 05:00N 14°58' W 116°26'0 0.4 28.6
2014-Jul-27 04:00N 14°58' W 116°26'1 0.8 28.7
2014-Jul-27 03:00N 14°59' W 116°26'2 1.1 28.8
2014-Jul-27 01:00N 14°60' W 116°24'1 1.1 28.8
2014-Jul-27 00:00N 15°01' W 116°23'1 0.6 28.8
2014-Jul-26 23:00N 15°01' W 116°22'3 2.6 28.8
2014-Jul-26 22:00N 15°03' W 116°21'0 0.0 28.7
2014-Jul-26 21:00N 15°03' W 116°21'2 0.7 28.7
2014-Jul-26 18:00N 15°04' W 116°20'1 0.6 28.7
2014-Jul-26 17:00N 15°05' W 116°20'1 0.9 28.6
2014-Jul-26 16:00N 15°04' W 116°19'1 0.3 28.6
2014-Jul-26 13:00N 15°05' W 116°18'0 0.3 28.6
2014-Jul-26 12:00N 15°05' W 116°18'2 0.5 28.6
2014-Jul-26 09:00N 15°05' W 116°16'1 0.3 28.7
2014-Jul-26 06:00N 15°05' W 116°15'3 0.7 28.8
2014-Jul-26 01:00N 15°03' W 116°12'0 0.1 29.2
2014-Jul-25 23:00N 15°03' W 116°12'1 0.4 29.2
2014-Jul-25 21:00N 15°02' W 116°12'4 1.4 29.6
2014-Jul-25 18:00N 15°02' W 116°07'1 0.7 29.0
2014-Jul-25 17:00N 15°02' W 116°07'3 2.6 28.8
2014-Jul-25 16:00N 15°02' W 116°04'0 0.1 28.6
2014-Jul-25 13:00N 15°02' W 116°04'1 1.0 28.5
2014-Jul-25 12:00N 15°02' W 116°03'0 0.0 28.6
2014-Jul-25 11:00N 15°02' W 116°03'4 3.6 28.6
2014-Jul-25 10:00N 15°04' W 115°59'0 0.0 28.7
2014-Jul-25 08:00N 15°04' W 115°59'1 0.3 28.8
2014-Jul-25 04:00N 15°05' W 115°58'1 1.4 29.0
2014-Jul-25 03:00N 15°06' W 115°57'0 0.0 29.1
2014-Jul-25 02:00N 15°06' W 115°57'2 1.5 29.2
2014-Jul-25 01:00N 15°07' W 115°56'1 0.7 29.4
2014-Jul-25 00:00N 15°07' W 115°55'3 0.5 29.6
2014-Jul-24 18:00N 15°10' W 115°54'0 0.3 28.8
2014-Jul-24 17:00N 15°10' W 115°55'1 0.9 28.6
2014-Jul-24 16:00N 15°11' W 115°54'1 0.9 28.5
2014-Jul-24 15:00N 15°11' W 115°55'0 0.2 28.4
2014-Jul-24 13:00N 15°12' W 115°54'1 0.4 28.4
2014-Jul-24 11:00N 15°11' W 115°55'0 0.3 28.4
2014-Jul-24 10:00N 15°11' W 115°55'0 0.2 28.4
2014-Jul-24 09:00N 15°11' W 115°55'1 1.0 28.4
2014-Jul-24 08:00N 15°10' W 115°55'0 0.0 28.4
2014-Jul-24 06:00N 15°10' W 115°55'1 0.8 28.5
2014-Jul-24 05:00N 15°09' W 115°54'1 0.5 28.5
2014-Jul-24 03:00N 15°10' W 115°53'1 1.1 28.5
2014-Jul-24 02:00N 15°10' W 115°52'2 0.6 28.6
2014-Jul-23 23:00N 15°11' W 115°51'1 0.7 28.6
2014-Jul-23 22:00N 15°11' W 115°50'0 0.0 28.6
2014-Jul-23 21:00N 15°11' W 115°50'3 0.7 28.6
2014-Jul-23 16:00N 15°12' W 115°47'8 1.3 28.4
2014-Jul-23 10:00N 15°12' W 115°39'3 1.5 28.4
2014-Jul-23 08:00N 15°14' W 115°36'0 0.0 28.4
2014-Jul-23 07:00N 15°14' W 115°36'6 0.9 28.4
2014-Jul-23 00:00N 15°18' W 115°31'1 0.3 28.5
2014-Jul-22 22:00N 15°18' W 115°31'1 1.2 28.5
2014-Jul-22 21:00N 15°18' W 115°30'0 0.0 28.5
2014-Jul-22 20:00N 15°18' W 115°30'2 1.0 28.5
2014-Jul-22 18:00N 15°20' W 115°29'1 0.7 28.4
2014-Jul-22 17:00N 15°21' W 115°28'1 0.5 28.3
2014-Jul-22 16:00N 15°20' W 115°28'1 0.3 28.3
2014-Jul-22 13:00N 15°21' W 115°27'0 0.2 28.3
2014-Jul-22 11:00N 15°20' W 115°26'0 0.0 28.3
2014-Jul-22 10:00N 15°20' W 115°26'0 0.0 28.3
2014-Jul-22 09:00N 15°20' W 115°26'1 0.4 28.3
2014-Jul-22 05:00N 15°20' W 115°25'1 0.7 28.3
2014-Jul-22 04:00N 15°20' W 115°24'1 1.1 28.4
2014-Jul-22 03:00N 15°20' W 115°23'0 0.0 28.4
2014-Jul-22 02:00N 15°20' W 115°23'3 1.1 28.4
2014-Jul-21 23:00N 15°19' W 115°20'1 1.0 28.4
2014-Jul-21 22:00N 15°19' W 115°19'1 0.7 28.4
2014-Jul-21 20:00N 15°20' W 115°17'2 1.1 28.4
2014-Jul-21 18:00N 15°21' W 115°15'0 0.2 28.4
2014-Jul-21 17:00N 15°21' W 115°15'2 1.7 28.4
2014-Jul-21 16:00N 15°21' W 115°14'2 0.6 28.4
2014-Jul-21 13:00N 15°22' W 115°12'0 0.4 28.5
2014-Jul-21 12:00N 15°22' W 115°12'0 0.0 28.5
2014-Jul-21 11:00N 15°22' W 115°12'4 2.0 28.5
2014-Jul-21 09:00N 15°23' W 115°08'3 0.4 28.5
2014-Jul-21 03:00N 15°25' W 115°06'2 0.9 28.6
2014-Jul-21 01:00N 15°25' W 115°05'   28.7
Track history (hours):
 
Tides and Currents Weather Stations Pressure Air Temp Water Temp Dewpoint Dewpoint Depression Visibility Wind Speed Wind Dir Waves Ship Positions

Drifting buoy 43528

Last reported at 2014-Jul-31 01:00 UTC. Time now 2014-Jul-31 05:27 UTC.
Position N 14°50' W 117°18'.

Water temperature 28.8 ° C

Date/timePositionNaut miles runAvg speedWind from/ knotsBaromVisibWave heightAir tempDewpointWater temp
2014-Jul-31 01:00N 14°50' W 117°18'1 0.7 28.8
2014-Jul-30 23:00N 14°50' W 117°16'0 0.4 28.8
2014-Jul-30 22:00N 14°49' W 117°16'1 0.6 28.9
2014-Jul-30 20:00N 14°48' W 117°15'1 0.6 28.8
2014-Jul-30 18:00N 14°48' W 117°14'1 1.1 28.8
2014-Jul-30 17:00N 14°47' W 117°13'0 0.1 28.7
2014-Jul-30 16:00N 14°47' W 117°13'2 0.5 28.7
2014-Jul-30 12:00N 14°47' W 117°11'2 2.0 28.7
2014-Jul-30 11:00N 14°45' W 117°09'0 0.0 28.7
2014-Jul-30 10:00N 14°45' W 117°09'3 0.4 28.7
2014-Jul-30 04:00N 14°44' W 117°07'6 1.1 28.7
2014-Jul-29 23:00N 14°41' W 117°02'1 0.9 28.8
2014-Jul-29 22:00N 14°41' W 117°01'5 0.9 28.9
2014-Jul-29 17:00N 14°40' W 116°56'3 2.7 28.7
2014-Jul-29 16:00N 14°40' W 116°53'0 0.0 28.7
2014-Jul-29 13:00N 14°40' W 116°53'1 0.7 28.6
2014-Jul-29 11:00N 14°39' W 116°52'4 2.0 28.7
2014-Jul-29 09:00N 14°40' W 116°48'0 0.0 28.7
2014-Jul-29 06:00N 14°40' W 116°48'1 1.1 28.7
2014-Jul-29 05:00N 14°40' W 116°47'0 0.4 28.7
2014-Jul-29 04:00N 14°41' W 116°47'5 1.0 28.8
2014-Jul-28 23:00N 14°42' W 116°42'1 1.1 28.9
2014-Jul-28 22:00N 14°43' W 116°42'1 0.6 28.9
2014-Jul-28 20:00N 14°44' W 116°41'2 1.2 28.9
2014-Jul-28 18:00N 14°46' W 116°39'1 0.7 28.8
2014-Jul-28 17:00N 14°46' W 116°40'1 1.5 28.7
2014-Jul-28 16:00N 14°48' W 116°40'1 0.4 28.6
2014-Jul-28 13:00N 14°48' W 116°39'1 1.2 28.6
2014-Jul-28 12:00N 14°49' W 116°39'0 0.0 28.6
2014-Jul-28 11:00N 14°49' W 116°39'1 0.7 28.6
2014-Jul-28 09:00N 14°51' W 116°38'1 0.2 28.6
2014-Jul-28 04:00N 14°51' W 116°37'1 0.5 28.7
2014-Jul-28 01:00N 14°52' W 116°36'0 0.0 29.0
2014-Jul-28 00:00N 14°52' W 116°36'1 0.5 29.0
2014-Jul-27 23:00N 14°52' W 116°36'1 0.6 29.0
2014-Jul-27 21:00N 14°52' W 116°35'2 0.8 28.8
2014-Jul-27 18:00N 14°53' W 116°33'1 0.5 28.7
2014-Jul-27 17:00N 14°54' W 116°33'1 0.9 28.6
2014-Jul-27 16:00N 14°54' W 116°32'1 0.5 28.6
2014-Jul-27 13:00N 14°54' W 116°30'1 0.7 28.5
2014-Jul-27 12:00N 14°55' W 116°30'5 1.6 28.5
2014-Jul-27 09:00N 14°58' W 116°27'4 4.0 28.6
2014-Jul-27 08:00N 14°56' W 116°30'4 2.0 28.6
2014-Jul-27 06:00N 14°58' W 116°27'1 1.0 28.6
2014-Jul-27 05:00N 14°58' W 116°26'0 0.4 28.6
2014-Jul-27 04:00N 14°58' W 116°26'1 0.8 28.7
2014-Jul-27 03:00N 14°59' W 116°26'2 1.1 28.8
2014-Jul-27 01:00N 14°60' W 116°24'1 1.1 28.8
2014-Jul-27 00:00N 15°01' W 116°23'1 0.6 28.8
2014-Jul-26 23:00N 15°01' W 116°22'3 2.6 28.8
2014-Jul-26 22:00N 15°03' W 116°21'0 0.0 28.7
2014-Jul-26 21:00N 15°03' W 116°21'2 0.7 28.7
2014-Jul-26 18:00N 15°04' W 116°20'1 0.6 28.7
2014-Jul-26 17:00N 15°05' W 116°20'1 0.9 28.6
2014-Jul-26 16:00N 15°04' W 116°19'1 0.3 28.6
2014-Jul-26 13:00N 15°05' W 116°18'0 0.3 28.6
2014-Jul-26 12:00N 15°05' W 116°18'2 0.5 28.6
2014-Jul-26 09:00N 15°05' W 116°16'1 0.3 28.7
2014-Jul-26 06:00N 15°05' W 116°15'3 0.7 28.8
2014-Jul-26 01:00N 15°03' W 116°12'0 0.1 29.2
2014-Jul-25 23:00N 15°03' W 116°12'1 0.4 29.2
2014-Jul-25 21:00N 15°02' W 116°12'4 1.4 29.6
2014-Jul-25 18:00N 15°02' W 116°07'1 0.7 29.0
2014-Jul-25 17:00N 15°02' W 116°07'3 2.6 28.8
2014-Jul-25 16:00N 15°02' W 116°04'0 0.1 28.6
2014-Jul-25 13:00N 15°02' W 116°04'1 1.0 28.5
2014-Jul-25 12:00N 15°02' W 116°03'0 0.0 28.6
2014-Jul-25 11:00N 15°02' W 116°03'4 3.6 28.6
2014-Jul-25 10:00N 15°04' W 115°59'0 0.0 28.7
2014-Jul-25 08:00N 15°04' W 115°59'1 0.3 28.8
2014-Jul-25 04:00N 15°05' W 115°58'1 1.4 29.0
2014-Jul-25 03:00N 15°06' W 115°57'0 0.0 29.1
2014-Jul-25 02:00N 15°06' W 115°57'2 1.5 29.2
2014-Jul-25 01:00N 15°07' W 115°56'1 0.7 29.4
2014-Jul-25 00:00N 15°07' W 115°55'3 0.5 29.6
2014-Jul-24 18:00N 15°10' W 115°54'0 0.3 28.8
2014-Jul-24 17:00N 15°10' W 115°55'1 0.9 28.6
2014-Jul-24 16:00N 15°11' W 115°54'1 0.9 28.5
2014-Jul-24 15:00N 15°11' W 115°55'0 0.2 28.4
2014-Jul-24 13:00N 15°12' W 115°54'1 0.4 28.4
2014-Jul-24 11:00N 15°11' W 115°55'0 0.3 28.4
2014-Jul-24 10:00N 15°11' W 115°55'0 0.2 28.4
2014-Jul-24 09:00N 15°11' W 115°55'1 1.0 28.4
2014-Jul-24 08:00N 15°10' W 115°55'0 0.0 28.4
2014-Jul-24 06:00N 15°10' W 115°55'1 0.8 28.5
2014-Jul-24 05:00N 15°09' W 115°54'1 0.5 28.5
2014-Jul-24 03:00N 15°10' W 115°53'1 1.1 28.5
2014-Jul-24 02:00N 15°10' W 115°52'2 0.6 28.6
2014-Jul-23 23:00N 15°11' W 115°51'1 0.7 28.6
2014-Jul-23 22:00N 15°11' W 115°50'0 0.0 28.6
2014-Jul-23 21:00N 15°11' W 115°50'3 0.7 28.6
2014-Jul-23 16:00N 15°12' W 115°47'8 1.3 28.4
2014-Jul-23 10:00N 15°12' W 115°39'3 1.5 28.4
2014-Jul-23 08:00N 15°14' W 115°36'0 0.0 28.4
2014-Jul-23 07:00N 15°14' W 115°36'6 0.9 28.4
2014-Jul-23 00:00N 15°18' W 115°31'1 0.3 28.5
2014-Jul-22 22:00N 15°18' W 115°31'1 1.2 28.5
2014-Jul-22 21:00N 15°18' W 115°30'0 0.0 28.5
2014-Jul-22 20:00N 15°18' W 115°30'2 1.0 28.5
2014-Jul-22 18:00N 15°20' W 115°29'1 0.7 28.4
2014-Jul-22 17:00N 15°21' W 115°28'1 0.5 28.3
2014-Jul-22 16:00N 15°20' W 115°28'1 0.3 28.3
2014-Jul-22 13:00N 15°21' W 115°27'0 0.2 28.3
2014-Jul-22 11:00N 15°20' W 115°26'0 0.0 28.3
2014-Jul-22 10:00N 15°20' W 115°26'0 0.0 28.3
2014-Jul-22 09:00N 15°20' W 115°26'1 0.4 28.3
2014-Jul-22 05:00N 15°20' W 115°25'1 0.7 28.3
2014-Jul-22 04:00N 15°20' W 115°24'1 1.1 28.4
2014-Jul-22 03:00N 15°20' W 115°23'0 0.0 28.4
2014-Jul-22 02:00N 15°20' W 115°23'3 1.1 28.4
2014-Jul-21 23:00N 15°19' W 115°20'1 1.0 28.4
2014-Jul-21 22:00N 15°19' W 115°19'1 0.7 28.4
2014-Jul-21 20:00N 15°20' W 115°17'2 1.1 28.4
2014-Jul-21 18:00N 15°21' W 115°15'0 0.2 28.4
2014-Jul-21 17:00N 15°21' W 115°15'2 1.7 28.4
2014-Jul-21 16:00N 15°21' W 115°14'2 0.6 28.4
2014-Jul-21 13:00N 15°22' W 115°12'0 0.4 28.5
2014-Jul-21 12:00N 15°22' W 115°12'0 0.0 28.5
2014-Jul-21 11:00N 15°22' W 115°12'4 2.0 28.5
2014-Jul-21 09:00N 15°23' W 115°08'3 0.4 28.5
2014-Jul-21 03:00N 15°25' W 115°06'2 0.9 28.6
2014-Jul-21 01:00N 15°25' W 115°05'   28.7

Dump ship's entire track history